Time;durP1;ratioP1;P1;durP2;ratioP2;P2;SDS_P1;SDS_P2;PMS_P1;PMS_P2;Temp;Humidity;BMP_temperature;BMP_pressure;BME280_temperature;BME280_humidity;BME280_pressure;Samples;Min_cycle;Max_cycle;Signal;HPM_P1;HPM_P2
2021/12/04 00:00:10;;;;;;;66.13;37.35;;;;;;;7.07;68.17;99981.88;5225368;28;20426;-42
2021/12/04 00:02:43;;;;;;;75.03;39.47;;;;;;;7.05;68.35;99978.56;5225758;28;20461;-45
2021/12/04 00:05:15;;;;;;;71.35;37.60;;;;;;;6.96;68.28;99961.06;5226994;28;20510;-43
2021/12/04 00:07:48;;;;;;;67.25;38.97;;;;;;;7.01;68.41;99974.59;5226002;28;21063;-41
2021/12/04 00:10:27;;;;;;;71.77;38.03;;;;;;;6.99;68.36;99972.09;5227291;28;20416;-42
2021/12/04 00:12:59;;;;;;;69.03;38.43;;;;;;;6.93;68.23;99965.63;5227333;28;20504;-42
2021/12/04 00:15:31;;;;;;;69.25;35.17;;;;;;;6.96;68.54;99959.25;5221713;28;20427;-45
2021/12/04 00:18:04;;;;;;;73.10;36.70;;;;;;;6.97;68.18;99958.31;5226667;28;20475;-43
2021/12/04 00:20:38;;;;;;;72.50;38.25;;;;;;;7.01;68.25;99959.66;5226743;28;20423;-41
2021/12/04 00:23:11;;;;;;;74.63;39.08;;;;;;;6.97;68.39;99960.09;5224930;28;20467;-43
2021/12/04 00:25:44;;;;;;;76.70;38.25;;;;;;;6.96;68.50;99959.25;5228044;28;20774;-43
2021/12/04 00:28:17;;;;;;;80.57;39.80;;;;;;;6.97;68.23;99960.09;5227291;28;20423;-43
2021/12/04 00:30:50;;;;;;;79.15;40.05;;;;;;;6.91;68.38;99957.09;5224184;27;20447;-44
2021/12/04 00:33:26;;;;;;;88.63;41.35;;;;;;;6.88;68.17;99954.78;5231596;28;20418;-47
2021/12/04 00:36:01;;;;;;;92.63;41.85;;;;;;;6.90;68.29;99960.69;5224218;28;20433;-42
2021/12/04 00:49:50;;;;;;;106.23;46.13;;;;;;;7.08;68.26;99942.31;5226126;28;20404;-43
2021/12/04 00:52:22;;;;;;;100.00;45.72;;;;;;;7.09;68.17;99937.91;5226061;28;20406;-44
2021/12/04 00:54:54;;;;;;;101.95;46.90;;;;;;;7.07;68.40;99934.63;5225313;28;20475;-43
2021/12/04 00:57:28;;;;;;;97.85;43.80;;;;;;;7.08;68.19;99936.25;5226456;28;20434;-44
2021/12/04 01:00:01;;;;;;;104.68;44.25;;;;;;;7.03;68.19;99938.50;5223294;28;20909;-48
2021/12/04 01:02:33;;;;;;;129.95;50.55;;;;;;;7.01;68.20;99927.34;5226059;28;20415;-44
2021/12/04 01:05:06;;;;;;;127.40;50.55;;;;;;;7.03;68.36;99934.09;5227297;28;20442;-42
2021/12/04 01:07:38;;;;;;;132.20;50.75;;;;;;;7.08;68.15;99952.84;5225662;28;20416;-43
2021/12/04 01:10:11;;;;;;;113.28;48.03;;;;;;;7.09;68.30;99948.41;5225599;28;20435;-44
2021/12/04 01:12:45;;;;;;;141.02;54.45;;;;;;;6.97;68.22;99924.19;5225101;28;20412;-46
2021/12/04 01:15:17;;;;;;;135.55;52.50;;;;;;;7.02;68.54;99931.59;5223334;28;20434;-43
2021/12/04 01:17:50;;;;;;;146.15;54.40;;;;;;;6.97;68.36;99923.34;5227186;28;20411;-43
2021/12/04 01:20:22;;;;;;;137.00;51.20;;;;;;;7.05;68.21;99924.25;5223287;28;20903;-43
2021/12/04 01:22:55;;;;;;;125.63;48.78;;;;;;;7.06;68.26;99911.94;5232501;27;20415;-42
2021/12/04 01:25:27;;;;;;;135.13;52.67;;;;;;;7.04;68.36;99903.41;5224774;28;20416;-44
2021/12/04 01:28:03;;;;;;;143.98;53.33;;;;;;;7.06;68.50;99901.44;5222860;28;20423;-45
2021/12/04 01:30:35;;;;;;;180.00;59.13;;;;;;;7.03;68.42;99907.84;5223148;28;20414;-44
2021/12/04 01:33:08;;;;;;;181.90;62.60;;;;;;;7.03;68.55;99913.09;5225573;28;20420;-43
2021/12/04 01:35:40;;;;;;;165.32;56.25;;;;;;;7.04;68.53;99911.28;5224192;28;20424;-44
2021/12/04 01:38:13;;;;;;;179.03;60.07;;;;;;;7.02;68.79;99911.41;5222724;28;20748;-42
2021/12/04 01:40:45;;;;;;;165.85;58.10;;;;;;;6.81;68.46;99866.25;5224229;28;20428;-41
2021/12/04 01:43:19;;;;;;;168.75;60.72;;;;;;;7.04;68.53;99913.91;5224053;28;20427;-44
2021/12/04 01:45:55;;;;;;;181.20;62.88;;;;;;;6.99;68.48;99892.53;5225993;28;20404;-46
2021/12/04 01:48:27;;;;;;;180.18;63.13;;;;;;;7.08;68.38;99912.63;5224249;28;20408;-44
2021/12/04 01:50:59;;;;;;;191.18;65.78;;;;;;;7.07;68.78;99908.38;5225216;28;20875;-42
2021/12/04 01:53:32;;;;;;;200.40;63.60;;;;;;;7.10;68.39;99910.69;5223464;28;20410;-43
2021/12/04 01:56:05;;;;;;;198.23;67.45;;;;;;;7.11;68.30;99909.69;5223529;28;20985;-42
2021/12/04 01:58:42;;;;;;;178.65;61.58;;;;;;;7.08;68.36;99905.56;5225919;28;20403;-45
2021/12/04 02:01:14;;;;;;;191.77;65.22;;;;;;;7.07;68.45;99901.31;5223368;28;20956;-42
2021/12/04 02:03:46;;;;;;;194.97;62.60;;;;;;;7.07;68.49;99896.06;5224953;28;20769;-43
2021/12/04 02:06:19;;;;;;;205.10;65.85;;;;;;;7.07;68.51;99897.84;5223733;28;20733;-42
2021/12/04 02:08:51;;;;;;;195.77;63.78;;;;;;;7.07;68.52;99898.69;5226956;28;20480;-41
2021/12/04 02:11:24;;;;;;;210.20;68.70;;;;;;;7.06;68.45;99898.81;5226156;28;20880;-43
2021/12/04 02:13:57;;;;;;;215.63;65.30;;;;;;;7.04;68.63;99903.41;5230585;28;20422;-44
2021/12/04 02:16:30;;;;;;;211.55;67.75;;;;;;;7.05;68.60;99902.41;5226871;28;20499;-40
2021/12/04 02:19:02;;;;;;;227.47;70.50;;;;;;;7.07;68.56;99892.59;5226373;28;20475;-43
2021/12/04 02:21:36;;;;;;;226.70;68.88;;;;;;;7.05;68.61;99886.66;5229930;28;20407;-42
2021/12/04 02:24:08;;;;;;;224.07;68.28;;;;;;;7.10;68.55;99898.38;5227067;28;20430;-43
2021/12/04 02:26:41;;;;;;;226.48;66.20;;;;;;;7.11;68.55;99893.94;5229223;28;20403;-42
2021/12/04 02:29:13;;;;;;;220.27;67.18;;;;;;;6.75;68.51;99841.47;5229942;28;20776;-43
2021/12/04 02:31:47;;;;;;;223.93;70.63;;;;;;;7.12;68.58;99890.34;5228356;28;20424;-42
2021/12/04 02:34:21;;;;;;;229.43;69.32;;;;;;;7.10;68.74;99887.06;5228571;28;20397;-43
2021/12/04 02:36:56;;;;;;;238.07;71.13;;;;;;;7.10;68.60;99887.06;5228792;28;20396;-42
2021/12/04 02:39:31;;;;;;;237.95;69.75;;;;;;;7.10;68.73;99887.88;5227448;28;20489;-41
2021/12/04 02:42:06;;;;;;;250.35;72.85;;;;;;;7.10;68.63;99881.81;5224828;28;20461;-43
2021/12/04 02:44:41;;;;;;;264.90;76.53;;;;;;;7.07;68.60;99882.09;5227361;28;20776;-44
2021/12/04 02:47:13;;;;;;;243.02;69.88;;;;;;;7.11;68.70;99878.19;5228433;28;20584;-44
2021/12/04 02:49:46;;;;;;;249.60;72.18;;;;;;;7.11;68.59;99881.63;5228904;28;20499;-43
2021/12/04 02:52:20;;;;;;;273.30;73.90;;;;;;;7.13;68.80;99871.00;5226996;28;20419;-43
2021/12/04 02:54:54;;;;;;;272.13;72.05;;;;;;;7.17;68.79;99872.34;5227143;28;20403;-43
2021/12/04 02:57:27;;;;;;;269.45;73.97;;;;;;;7.19;68.69;99870.41;5226832;28;20412;-43
2021/12/04 02:59:59;;;;;;;273.10;72.97;;;;;;;7.21;68.61;99865.78;5224588;28;20935;-43
2021/12/04 03:02:32;;;;;;;249.57;72.93;;;;;;;7.22;68.61;99870.09;5217476;28;20518;-45
2021/12/04 03:05:09;;;;;;;264.52;73.93;;;;;;;7.17;68.50;99856.59;5224269;28;20430;-44
2021/12/04 03:07:42;;;;;;;236.43;69.85;;;;;;;7.23;68.78;99858.59;5223334;28;20462;-44
2021/12/04 03:10:14;;;;;;;276.07;75.90;;;;;;;7.23;68.57;99855.97;5226770;28;20674;-43
2021/12/04 03:12:47;;;;;;;270.35;75.03;;;;;;;7.24;68.64;99857.63;5229527;28;20931;-44
2021/12/04 03:15:21;;;;;;;258.02;71.97;;;;;;;7.26;68.55;99860.09;5227253;28;20436;-48
2021/12/04 03:17:53;;;;;;;259.95;72.93;;;;;;;7.26;68.78;99862.72;5228858;28;20416;-42
2021/12/04 03:20:26;;;;;;;271.38;73.25;;;;;;;7.17;68.82;99851.34;5225896;28;20995;-42
2021/12/04 03:23:01;;;;;;;290.85;77.13;;;;;;;7.20;68.71;99845.78;5226756;28;20941;-43
2021/12/04 03:25:34;;;;;;;283.70;73.05;;;;;;;7.26;68.69;99847.78;5223542;28;20422;-43
2021/12/04 03:28:08;;;;;;;312.20;80.10;;;;;;;7.28;68.58;99840.59;5226344;28;20422;-42
2021/12/04 03:30:45;;;;;;;298.00;76.15;;;;;;;7.33;68.64;99833.06;5227770;28;20423;-47
2021/12/04 03:41:47;;;;;;;288.02;75.93;;;;;;;7.36;68.64;99818.81;5226253;28;20779;-43
2021/12/04 03:44:20;;;;;;;317.70;78.00;;;;;;;7.32;69.07;99818.28;5225734;28;20427;-43
2021/12/04 03:46:52;;;;;;;327.88;79.32;;;;;;;7.31;68.80;99819.28;5226319;28;20439;-45
2021/12/04 03:49:25;;;;;;;314.15;79.22;;;;;;;7.32;68.79;99818.28;5226273;28;20483;-42
2021/12/04 03:51:57;;;;;;;314.50;77.50;;;;;;;7.31;68.95;99821.91;5226913;28;20855;-42
2021/12/04 03:54:31;;;;;;;322.25;78.53;;;;;;;7.27;68.97;99820.53;5226641;28;20408;-44
2021/12/04 03:57:04;;;;;;;320.60;78.40;;;;;;;7.25;68.89;99822.53;5223177;28;20408;-43
2021/12/04 03:59:40;;;;;;;324.25;75.15;;;;;;;7.24;68.95;99826.09;5225436;28;20427;-42
2021/12/04 04:02:15;;;;;;;346.55;78.85;;;;;;;7.26;68.99;99818.09;5227459;28;20436;-41
2021/12/04 04:04:47;;;;;;;339.35;80.43;;;;;;;7.29;68.74;99815.16;5226694;28;20415;-43
2021/12/04 04:07:20;;;;;;;329.50;77.82;;;;;;;7.28;68.86;99806.47;5223934;28;20423;-42
2021/12/04 04:09:53;;;;;;;315.98;78.68;;;;;;;7.35;68.83;99814.53;5226864;28;20415;-42
2021/12/04 04:12:26;;;;;;;338.13;76.22;;;;;;;7.34;68.83;99811.09;5224302;28;20495;-42
2021/12/04 04:14:58;;;;;;;330.15;80.47;;;;;;;7.34;69.01;99805.00;5227907;28;20895;-44
2021/12/04 04:17:32;;;;;;;356.50;79.30;;;;;;;7.38;68.72;99807.16;5223960;28;20411;-48
2021/12/04 04:20:07;;;;;;;326.80;79.95;;;;;;;7.39;68.72;99806.19;5224390;28;20411;-46
2021/12/04 04:22:40;;;;;;;343.25;78.85;;;;;;;7.45;68.67;99803.94;5225466;28;20505;-44
2021/12/04 04:25:17;;;;;;;365.77;81.03;;;;;;;7.47;68.74;99794.91;5227068;28;20507;-48
2021/12/04 04:27:49;;;;;;;334.83;76.80;;;;;;;7.52;68.64;99797.06;5223997;28;20770;-43
2021/12/04 04:30:22;;;;;;;314.27;76.47;;;;;;;7.49;68.63;99800.00;5227083;28;20545;-43
2021/12/04 04:32:55;;;;;;;355.98;82.20;;;;;;;7.47;68.69;99794.09;5224628;28;20557;-43
2021/12/04 04:35:28;;;;;;;322.73;77.40;;;;;;;7.25;68.68;99751.63;5226397;28;20419;-45
2021/12/04 04:38:10;;;;;;;320.55;77.38;;;;;;;7.45;69.14;99775.03;5224267;28;20424;-39
2021/12/04 05:01:13;;;;;;;297.73;69.93;;;;;;;7.35;68.94;99775.97;5220829;28;20541;-44
2021/12/04 05:12:22;;;;;;;308.08;71.05;;;;;;;7.32;69.09;99757.88;5223064;28;20400;-43
2021/12/04 05:15:17;;;;;;;305.60;71.63;;;;;;;7.38;68.89;99765.16;5224148;28;20403;-44
2021/12/04 05:20:38;;;;;;;310.80;71.53;;;;;;;7.15;68.82;99725.47;5204758;28;20419;-42
2021/12/04 05:23:10;;;;;;;310.70;71.13;;;;;;;7.44;68.92;99766.34;5224559;28;20462;-43
2021/12/04 05:25:43;;;;;;;301.27;71.53;;;;;;;7.42;69.07;99759.56;5226940;28;20532;-43
2021/12/04 05:28:15;;;;;;;326.80;72.68;;;;;;;7.45;68.73;99752.19;5225194;28;20418;-43
2021/12/04 05:30:50;;;;;;;301.30;74.35;;;;;;;7.41;68.81;99752.69;5225400;28;20419;-44
2021/12/04 05:33:22;;;;;;;308.23;71.20;;;;;;;7.45;69.02;99754.84;5225143;28;20408;-43
2021/12/04 05:35:55;;;;;;;280.67;68.32;;;;;;;7.47;68.99;99757.31;5223722;28;20396;-44
2021/12/04 05:38:27;;;;;;;289.27;67.18;;;;;;;7.48;68.86;99748.44;5224880;28;20410;-43
2021/12/04 05:41:00;;;;;;;267.65;66.72;;;;;;;7.48;69.05;99749.25;5223411;28;20433;-44
2021/12/04 05:43:34;;;;;;;284.48;69.75;;;;;;;7.47;69.02;99762.56;5222435;28;20487;-42
2021/12/04 05:46:13;;;;;;;264.25;67.78;;;;;;;7.49;68.97;99744.84;5225910;28;20419;-42
2021/12/04 05:48:50;;;;;;;287.10;68.53;;;;;;;7.49;69.10;99736.94;5221349;28;20757;-43
2021/12/04 05:51:37;;;;;;;287.50;68.63;;;;;;;7.50;68.87;99730.72;5224074;28;20884;-46
2021/12/04 05:54:29;;;;;;;268.65;65.40;;;;;;;7.45;68.66;99728.56;5224549;28;20424;-43
2021/12/04 05:57:01;;;;;;;271.90;66.10;;;;;;;7.51;68.83;99748.94;5221619;28;20407;-48
2021/12/04 05:59:34;;;;;;;299.98;69.50;;;;;;;7.53;68.92;99736.50;5225972;28;20514;-43
2021/12/04 06:02:08;;;;;;;271.98;67.07;;;;;;;7.58;68.91;99741.25;5226144;28;20432;-41
2021/12/04 06:04:41;;;;;;;286.15;69.32;;;;;;;7.57;68.87;99739.63;5223978;28;20426;-44
2021/12/04 06:07:13;;;;;;;270.52;67.82;;;;;;;7.58;68.87;99738.63;5223303;28;20411;-44
2021/12/04 06:09:45;;;;;;;280.90;68.15;;;;;;;7.55;68.88;99746.84;5225527;28;20434;-43
2021/12/04 06:12:17;;;;;;;282.92;68.10;;;;;;;7.54;69.03;99742.56;5223858;28;20495;-42
2021/12/04 06:14:50;;;;;;;263.30;64.10;;;;;;;7.52;68.94;99734.81;5224407;28;20791;-42
2021/12/04 06:17:25;;;;;;;266.23;62.45;;;;;;;7.46;69.11;99735.44;5224292;28;20426;-42
2021/12/04 06:22:48;;;;;;;261.58;62.53;;;;;;;7.49;69.07;99734.31;5223144;28;20764;-44
2021/12/04 06:25:24;;;;;;;259.25;64.18;;;;;;;7.27;68.92;99710.25;5224970;28;23324;-41
2021/12/04 06:27:57;;;;;;;268.70;64.33;;;;;;;7.53;68.89;99740.94;5224308;28;21073;-45
2021/12/04 06:30:34;;;;;;;271.02;63.70;;;;;;;7.56;68.93;99745.88;5224696;28;20411;-42
2021/12/04 06:33:11;;;;;;;274.70;65.13;;;;;;;7.53;69.14;99738.31;5220856;28;20448;-42
2021/12/04 06:35:46;;;;;;;271.13;67.22;;;;;;;7.45;68.95;99730.38;5224591;28;20423;-46
2021/12/04 06:38:20;;;;;;;265.73;62.73;;;;;;;7.51;68.91;99738.44;5222511;28;20488;-42
2021/12/04 06:40:52;;;;;;;254.00;62.97;;;;;;;7.50;68.98;99725.47;5223463;28;20662;-42
2021/12/04 06:43:25;;;;;;;245.70;61.07;;;;;;;7.49;68.95;99726.44;5223061;28;20431;-43
2021/12/04 06:45:59;;;;;;;267.42;62.65;;;;;;;7.48;69.04;99728.25;5223135;28;20419;-43
2021/12/04 06:48:42;;;;;;;241.52;63.05;;;;;;;7.50;69.00;99725.47;5220322;28;20763;-48
2021/12/04 06:51:22;;;;;;;237.95;59.45;;;;;;;7.43;69.16;99724.44;5223646;28;20420;-43
2021/12/04 06:53:58;;;;;;;236.45;58.97;;;;;;;7.50;68.97;99731.56;5224326;28;20891;-43
2021/12/04 06:56:34;;;;;;;214.40;56.45;;;;;;;7.49;69.12;99729.88;5226838;28;20447;-43
2021/12/04 06:59:11;;;;;;;254.90;59.70;;;;;;;7.39;68.96;99719.50;5225418;28;20601;-42
2021/12/04 07:01:43;;;;;;;259.25;62.13;;;;;;;7.48;69.15;99732.69;5227208;28;20425;-42
2021/12/04 07:04:18;;;;;;;268.02;63.85;;;;;;;7.49;69.13;99729.88;5226828;28;20418;-43
2021/12/04 07:06:50;;;;;;;272.85;63.15;;;;;;;7.49;69.07;99723.81;5227919;28;20546;-43
2021/12/04 07:09:23;;;;;;;259.77;60.93;;;;;;;7.45;69.23;99714.59;5226939;28;20400;-45
2021/12/04 07:11:55;;;;;;;285.02;64.30;;;;;;;7.35;69.43;99710.28;5225298;28;20763;-43
2021/12/04 07:14:28;;;;;;;270.15;60.83;;;;;;;7.42;69.32;99712.28;5230212;28;20419;-42
2021/12/04 07:17:02;;;;;;;287.20;66.10;;;;;;;7.41;69.19;99705.41;5225464;28;20412;-43
2021/12/04 07:19:36;;;;;;;265.05;62.10;;;;;;;7.42;69.26;99707.03;5223438;28;20486;-43
2021/12/04 07:22:09;;;;;;;271.42;64.38;;;;;;;7.39;69.33;99703.75;5227948;28;20923;-43
2021/12/04 07:24:41;;;;;;;284.10;66.30;;;;;;;7.36;69.47;99698.78;5226886;28;20415;-47
2021/12/04 07:27:13;;;;;;;276.52;62.00;;;;;;;7.41;69.24;99710.66;5227617;28;20424;-43
2021/12/04 07:29:46;;;;;;;285.40;61.42;;;;;;;7.44;69.32;99705.09;5226562;28;20423;-42
2021/12/04 07:32:18;;;;;;;246.27;59.78;;;;;;;7.45;69.24;99709.34;5224752;28;20431;-44
2021/12/04 07:34:53;;;;;;;226.13;57.25;;;;;;;7.37;69.20;99695.22;5228174;28;20489;-43
2021/12/04 07:37:25;;;;;;;243.43;61.38;;;;;;;7.44;69.34;99712.97;5226963;28;20499;-43
2021/12/04 07:39:58;;;;;;;232.13;55.10;;;;;;;7.43;69.24;99708.69;5229192;28;20491;-44
2021/12/04 07:42:30;;;;;;;215.57;53.37;;;;;;;7.41;69.47;99700.97;5223950;28;20420;-43
2021/12/04 07:45:03;;;;;;;251.48;55.97;;;;;;;7.32;69.40;99700.09;5221634;28;20407;-46
2021/12/04 07:47:36;;;;;;;216.23;51.13;;;;;;;7.34;69.49;99703.41;5227241;28;20417;-43
2021/12/04 07:50:11;;;;;;;232.82;53.63;;;;;;;7.33;69.61;99693.84;5228012;28;20434;-43
2021/12/04 07:52:43;;;;;;;241.32;56.67;;;;;;;7.28;69.57;99696.16;5227183;28;20523;-43
2021/12/04 07:55:16;;;;;;;227.88;55.70;;;;;;;7.26;69.40;99678.91;5226180;28;20782;-43
2021/12/04 07:57:48;;;;;;;230.90;53.75;;;;;;;7.33;69.40;99690.41;5226743;28;20510;-44
2021/12/04 08:00:22;;;;;;;216.85;53.03;;;;;;;7.33;69.46;99672.84;5225737;28;22373;-45
2021/12/04 08:02:55;;;;;;;214.77;54.92;;;;;;;7.34;69.56;99661.38;5222629;28;20416;-47
2021/12/04 08:05:29;;;;;;;184.85;48.35;;;;;;;7.33;69.49;99661.53;5225049;28;20411;-43
2021/12/04 08:08:02;;;;;;;184.23;49.53;;;;;;;7.29;69.52;99652.31;5221522;28;20777;-52
2021/12/04 08:10:35;;;;;;;185.45;51.03;;;;;;;7.28;69.35;99659.38;5228602;28;20490;-43
2021/12/04 08:13:07;;;;;;;190.45;47.92;;;;;;;7.29;69.45;99668.09;5229408;28;20498;-42
2021/12/04 08:15:40;;;;;;;184.80;53.15;;;;;;;7.29;69.57;99678.59;5231078;28;20420;-44
2021/12/04 08:18:12;;;;;;;181.10;49.65;;;;;;;7.19;69.60;99655.06;5228904;28;20830;-42
2021/12/04 08:20:46;;;;;;;193.32;52.17;;;;;;;7.25;69.74;99659.69;5229083;28;20931;-42
2021/12/04 08:23:19;;;;;;;172.55;50.20;;;;;;;7.24;69.71;99647.53;5229112;28;20481;-46
2021/12/04 08:25:51;;;;;;;181.48;50.63;;;;;;;7.26;69.70;99650.84;5225489;28;20487;-43
2021/12/04 08:28:23;;;;;;;172.02;49.42;;;;;;;7.29;69.57;99652.31;5230332;28;20416;-43
2021/12/04 08:30:56;;;;;;;189.30;52.20;;;;;;;7.35;69.43;99660.41;5229356;28;20404;-46
2021/12/04 08:33:29;;;;;;;197.30;53.92;;;;;;;7.44;69.46;99663.06;5225662;28;20596;-42
2021/12/04 08:36:04;;;;;;;195.75;50.90;;;;;;;7.46;69.56;99661.06;5232648;28;20459;-39
2021/12/04 08:38:38;;;;;;;187.45;50.22;;;;;;;7.50;69.28;99662.44;5227306;28;20408;-44
2021/12/04 08:41:10;;;;;;;208.38;55.38;;;;;;;7.49;69.41;99658.13;5227541;28;20550;-42
2021/12/04 08:43:43;;;;;;;192.85;51.38;;;;;;;7.53;69.37;99659.47;5228881;28;20415;-42
2021/12/04 08:46:20;;;;;;;180.57;50.20;;;;;;;7.53;69.41;99662.13;5227270;28;20416;-42
2021/12/04 08:48:54;;;;;;;190.15;54.50;;;;;;;7.50;69.48;99662.44;5226073;28;20415;-43
2021/12/04 08:51:29;;;;;;;177.30;51.87;;;;;;;7.46;69.52;99647.94;5226025;28;20411;-43
2021/12/04 08:54:02;;;;;;;166.40;48.60;;;;;;;7.55;69.54;99665.38;5223302;28;20404;-42
2021/12/04 08:56:34;;;;;;;163.57;49.28;;;;;;;7.53;69.39;99668.19;5226284;28;20416;-42
2021/12/04 08:59:07;;;;;;;177.27;52.28;;;;;;;7.50;69.66;99678.19;5225386;28;20411;-43
2021/12/04 09:01:44;;;;;;;186.02;52.67;;;;;;;7.51;69.58;99661.44;5226582;28;20410;-43
2021/12/04 09:04:20;;;;;;;168.52;51.15;;;;;;;7.50;69.56;99646.66;5227888;28;20438;-43
2021/12/04 09:06:56;;;;;;;163.40;48.75;;;;;;;7.49;69.41;99645.00;5229652;28;20422;-43
2021/12/04 09:09:29;;;;;;;165.85;50.28;;;;;;;7.56;69.45;99652.09;5225899;28;20425;-43
2021/12/04 09:12:06;;;;;;;158.25;50.72;;;;;;;7.60;69.46;99636.84;5227151;28;20485;-43
2021/12/04 09:14:42;;;;;;;164.05;49.47;;;;;;;7.62;69.38;99645.38;5223779;28;20424;-42
2021/12/04 09:17:17;;;;;;;164.05;52.30;;;;;;;7.68;69.33;99650.00;5226705;28;20754;-43
2021/12/04 09:19:50;;;;;;;157.20;50.28;;;;;;;7.67;69.21;99658.84;5227370;28;20427;-43
2021/12/04 09:22:33;;;;;;;158.95;51.72;;;;;;;7.67;69.38;99640.47;5222332;28;20766;-43
2021/12/04 09:25:13;;;;;;;167.80;51.60;;;;;;;7.71;69.37;99633.91;5219849;28;21526;-44
2021/12/04 09:27:58;;;;;;;165.05;52.40;;;;;;;7.71;69.37;99627.81;5220985;28;20465;-45
2021/12/04 09:30:55;;;;;;;142.83;44.73;;;;;;;7.68;69.30;99629.00;5222123;28;20590;-43
2021/12/04 09:36:38;;;;;;;157.23;50.45;;;;;;;7.39;69.44;99587.34;5220175;28;20416;-42
2021/12/04 09:59:44;;;;;;;123.45;44.95;;;;;;;7.59;69.66;99612.38;5139102;28;20977;-45
2021/12/04 10:02:29;;;;;;;132.95;43.70;;;;;;;7.61;69.67;99622.72;5222371;28;20776;-42
2021/12/04 10:05:39;;;;;;;126.32;47.08;;;;;;;7.62;69.51;99621.75;5221357;28;20419;-43
2021/12/04 10:12:11;;;;;;;126.55;46.10;;;;;;;7.56;69.58;99604.00;5216280;28;20409;-43
2021/12/04 10:21:14;;;;;;;127.45;44.55;;;;;;;7.73;69.57;99583.81;5189803;28;20408;-44
2021/12/04 10:32:35;;;;;;;114.85;43.90;;;;;;;7.77;69.67;99607.00;5230062;28;20483;-43
2021/12/04 10:35:13;;;;;;;92.22;37.38;;;;;;;7.76;69.61;99573.78;5227394;28;20502;-44
2021/12/04 10:37:50;;;;;;;94.38;38.33;;;;;;;7.66;69.55;99567.06;5226750;28;20437;-42
2021/12/04 10:40:34;;;;;;;97.55;39.78;;;;;;;7.61;69.81;99554.38;5227727;28;20434;-43
2021/12/04 10:43:12;;;;;;;97.65;40.42;;;;;;;7.58;69.75;99546.84;5223992;28;20408;-42
2021/12/04 10:45:51;;;;;;;100.22;41.85;;;;;;;7.64;69.81;99559.31;5229911;28;20780;-44
2021/12/04 10:48:28;;;;;;;110.30;41.15;;;;;;;7.62;69.66;99550.81;5229082;28;20908;-43
2021/12/04 10:51:10;;;;;;;103.50;39.38;;;;;;;7.71;69.67;99554.22;5228820;28;20415;-44
2021/12/04 10:53:48;;;;;;;76.38;32.40;;;;;;;7.66;69.56;99541.59;5226540;28;20410;-43
2021/12/04 10:56:29;;;;;;;75.57;33.90;;;;;;;7.67;69.58;99547.66;5231349;28;20412;-44
2021/12/04 10:59:27;;;;;;;72.05;33.72;;;;;;;7.66;69.61;99552.09;5229455;28;20757;-49
2021/12/04 11:02:08;;;;;;;73.97;32.67;;;;;;;7.63;69.71;99537.47;5228824;28;20491;-43
2021/12/04 11:04:45;;;;;;;72.53;31.58;;;;;;;7.64;69.66;99548.81;5228439;28;20477;-42
2021/12/04 11:07:38;;;;;;;72.43;33.45;;;;;;;7.60;69.70;99537.00;5227256;28;20823;-42
2021/12/04 11:19:04;;;;;;;70.72;35.05;;;;;;;7.61;69.70;99538.63;5230394;28;20519;-43
2021/12/04 11:27:47;;;;;;;58.17;31.35;;;;;;;7.56;69.80;99525.19;5220894;28;20514;-44
2021/12/04 11:36:19;;;;;;;56.53;30.90;;;;;;;7.62;69.85;99508.75;5216311;28;20519;-42
2021/12/04 11:38:54;;;;;;;57.15;30.77;;;;;;;7.60;69.56;99508.09;5218442;28;23148;-44
2021/12/04 11:41:32;;;;;;;60.60;30.67;;;;;;;7.58;69.68;99502.16;5215112;28;20449;-43
2021/12/04 11:44:08;;;;;;;56.90;30.73;;;;;;;7.59;69.54;99495.94;5216675;28;20422;-43
2021/12/04 11:46:46;;;;;;;64.38;32.17;;;;;;;7.62;69.62;99498.25;5224705;28;20431;-46
2021/12/04 11:49:21;;;;;;;56.20;31.08;;;;;;;7.62;69.44;99496.44;5219388;28;20478;-43
2021/12/04 11:51:57;;;;;;;58.95;29.95;;;;;;;7.62;69.54;99499.06;5222950;28;20418;-46
2021/12/04 11:54:34;;;;;;;58.75;30.45;;;;;;;7.55;69.51;99482.28;5221415;28;20420;-42
2021/12/04 11:57:09;;;;;;;58.47;29.53;;;;;;;7.60;69.62;99487.06;5225131;28;20435;-42
2021/12/04 11:59:44;;;;;;;59.28;28.60;;;;;;;7.54;69.60;99490.34;5220844;28;20441;-42
2021/12/04 12:02:23;;;;;;;69.45;31.23;;;;;;;7.52;69.56;99487.06;5220252;28;20483;-43
2021/12/04 12:04:57;;;;;;;67.63;32.08;;;;;;;7.55;69.64;99486.72;5223345;28;20430;-45
2021/12/04 12:07:31;;;;;;;66.97;33.58;;;;;;;7.57;69.53;99480.34;5222960;28;20875;-42
2021/12/04 12:10:09;;;;;;;74.38;34.47;;;;;;;7.57;69.51;99471.63;5219980;28;20415;-42
2021/12/04 12:12:44;;;;;;;71.55;32.67;;;;;;;7.51;69.55;99470.47;5225746;28;20419;-42
2021/12/04 12:15:29;;;;;;;67.05;34.17;;;;;;;7.15;69.40;99401.66;5223429;28;20904;-44
2021/12/04 12:18:13;;;;;;;69.22;35.50;;;;;;;7.59;69.37;99461.78;5217671;28;20452;-46
2021/12/04 12:20:50;;;;;;;77.95;36.63;;;;;;;7.60;69.60;99468.69;5220788;28;20419;-43
2021/12/04 12:23:26;;;;;;;75.13;35.40;;;;;;;7.60;69.36;99471.31;5224404;28;20435;-44
2021/12/04 12:26:15;;;;;;;77.03;36.27;;;;;;;7.62;69.38;99469.34;5226405;28;20481;-42
2021/12/04 12:31:54;;;;;;;78.53;35.55;;;;;;;7.33;69.20;99431.22;5217923;28;20424;-46
2021/12/04 12:37:25;;;;;;;89.50;38.15;;;;;;;7.54;69.44;99453.56;5219490;28;20411;-42
2021/12/04 12:40:05;;;;;;;89.88;40.65;;;;;;;7.55;69.30;99457.81;5216077;28;20935;-43
2021/12/04 12:42:41;;;;;;;94.88;39.83;;;;;;;7.55;69.29;99456.00;5216834;28;20901;-43
2021/12/04 12:45:21;;;;;;;102.72;41.92;;;;;;;7.55;69.38;99460.47;5222542;28;20859;-42
2021/12/04 12:47:59;;;;;;;98.07;41.22;;;;;;;7.56;69.18;99462.13;5219206;28;20706;-44
2021/12/04 12:50:37;;;;;;;100.43;42.80;;;;;;;7.60;69.13;99452.91;5219988;28;20496;-43
2021/12/04 12:53:13;;;;;;;100.03;41.45;;;;;;;7.60;69.04;99463.41;5216987;28;20412;-42
2021/12/04 12:55:53;;;;;;;101.77;42.87;;;;;;;7.60;69.05;99463.41;5224043;28;20419;-42
2021/12/04 12:58:42;;;;;;;107.00;41.90;;;;;;;7.60;69.19;99458.16;5224205;28;20423;-43
2021/12/04 13:13:32;;;;;;;119.97;47.65;;;;;;;7.73;68.85;99452.41;5225752;28;20507;-45
2021/12/04 13:16:15;;;;;;;115.55;46.08;;;;;;;7.76;68.74;99452.91;5224152;28;20632;-43
2021/12/04 13:18:55;;;;;;;124.10;46.88;;;;;;;7.80;68.89;99448.97;5222765;28;20516;-43
2021/12/04 13:21:28;;;;;;;122.85;48.38;;;;;;;7.77;68.67;99444.03;5223421;28;20447;-42
2021/12/04 13:24:01;;;;;;;114.95;45.88;;;;;;;7.83;68.65;99443.38;5221532;28;20413;-46
2021/12/04 13:26:36;;;;;;;118.57;45.90;;;;;;;7.84;68.73;99447.66;5220212;28;20767;-43
2021/12/04 13:29:12;;;;;;;120.13;46.55;;;;;;;7.84;68.74;99437.13;5224554;28;20908;-43
2021/12/04 13:31:46;;;;;;;122.05;48.13;;;;;;;7.82;68.77;99431.22;5221906;28;20875;-45
2021/12/04 13:34:29;;;;;;;113.70;43.72;;;;;;;7.84;68.83;99429.25;5221600;28;20409;-45
2021/12/04 13:37:01;;;;;;;126.70;46.03;;;;;;;7.85;68.67;99430.88;5223908;28;20416;-45
2021/12/04 13:39:35;;;;;;;121.70;45.90;;;;;;;7.85;68.71;99425.63;5220951;28;20408;-45
2021/12/04 13:42:08;;;;;;;115.95;44.60;;;;;;;7.84;68.72;99424.00;5222419;28;20423;-44
2021/12/04 13:44:41;;;;;;;105.43;41.83;;;;;;;7.83;68.56;99422.34;5218388;28;20919;-42
2021/12/04 13:47:14;;;;;;;107.65;43.05;;;;;;;7.90;68.80;99434.81;5221988;28;20785;-46
2021/12/04 13:49:56;;;;;;;102.97;40.58;;;;;;;7.88;68.62;99421.03;5223641;28;20634;-42
2021/12/04 13:52:32;;;;;;;94.60;38.13;;;;;;;7.93;68.68;99422.16;5223194;28;20415;-42
2021/12/04 13:55:11;;;;;;;89.93;38.13;;;;;;;7.94;68.75;99433.50;5218658;28;20901;-44
2021/12/04 13:57:44;;;;;;;87.22;36.20;;;;;;;7.99;68.45;99437.28;5220517;28;20424;-45
2021/12/04 14:00:19;;;;;;;95.50;38.65;;;;;;;8.02;68.34;99434.31;5223708;28;20454;-44
2021/12/04 14:02:52;;;;;;;98.53;40.22;;;;;;;8.11;68.24;99448.25;5221239;28;20423;-47
2021/12/04 14:05:26;;;;;;;75.60;33.17;;;;;;;8.15;68.29;99452.19;5227885;28;20398;-43
2021/12/04 14:08:01;;;;;;;77.85;31.35;;;;;;;8.16;68.38;99448.56;5225314;28;20417;-45
2021/12/04 14:10:37;;;;;;;80.30;36.30;;;;;;;8.20;68.27;99447.22;5226282;28;20412;-49